createdAt,value
2018-04-26T00:00:29.541Z,100069.06
2018-04-26T00:02:58.486Z,100070.30
2018-04-26T00:05:27.675Z,100064.66
2018-04-26T00:07:56.535Z,100069.14
2018-04-26T00:10:25.735Z,100057.78
2018-04-26T00:12:54.729Z,100058.41
2018-04-26T00:15:23.820Z,100059.25
2018-04-26T00:17:53.989Z,100053.05
2018-04-26T00:20:22.942Z,100054.17
2018-04-26T00:22:53.811Z,100051.19
2018-04-26T00:25:22.868Z,100051.66
2018-04-26T00:27:51.766Z,100055.06
2018-04-26T00:30:21.621Z,100052.05
2018-04-26T00:32:51.568Z,100047.17
2018-04-26T00:35:20.482Z,100045.34
2018-04-26T00:37:49.417Z,100049.95
2018-04-26T00:40:18.503Z,100045.99
2018-04-26T00:42:47.497Z,100046.47
2018-04-26T00:45:16.359Z,100037.13
2018-04-26T00:47:45.458Z,100034.23
2018-04-26T00:50:14.988Z,100034.90
2018-04-26T00:52:44.063Z,100030.70
2018-04-26T00:55:12.937Z,100035.19
2018-04-26T00:57:42.044Z,100035.46
2018-04-26T01:00:11.039Z,100039.89
2018-04-26T01:02:41.813Z,100035.15
2018-04-26T01:05:10.703Z,100033.95
2018-04-26T01:07:39.866Z,100030.75
2018-04-26T01:10:10.086Z,100029.34
2018-04-26T01:12:39.016Z,100023.28
2018-04-26T01:15:09.103Z,100026.77
2018-04-26T01:17:39.938Z,100023.91
2018-04-26T01:20:08.913Z,100023.81
2018-04-26T01:22:37.962Z,100020.91
2018-04-26T01:25:06.989Z,100019.36
2018-04-26T01:27:36.051Z,100019.94
2018-04-26T01:30:05.214Z,100018.11
2018-04-26T01:32:34.380Z,100012.42
2018-04-26T01:35:03.927Z,100019.53
2018-04-26T01:37:45.612Z,100010.88
2018-04-26T01:40:15.011Z,100017.85
2018-04-26T01:42:44.107Z,100011.66
2018-04-26T01:45:14.846Z,100011.07
2018-04-26T01:47:43.843Z,100012.33
2018-04-26T01:50:13.755Z,100012.30
2018-04-26T01:52:43.437Z,100015.02
2018-04-26T01:55:12.314Z,100012.86
2018-04-26T01:57:42.175Z,100017.70
2018-04-26T02:00:12.055Z,100008.96
2018-04-26T02:02:41.080Z,100013.30
2018-04-26T02:05:10.065Z,100016.73
2018-04-26T02:07:39.787Z,100016.91
2018-04-26T02:10:09.216Z,100021.31
2018-04-26T02:12:38.326Z,100027.02
2018-04-26T02:15:07.485Z,100022.92
2018-04-26T02:17:37.199Z,100014.50
2018-04-26T02:20:06.596Z,100019.05
2018-04-26T02:22:42.663Z,100016.59
2018-04-26T02:25:12.169Z,100021.10
2018-04-26T02:27:41.264Z,100013.45
2018-04-26T02:30:13.328Z,100017.84
2018-04-26T02:32:42.322Z,100018.15
2018-04-26T02:35:11.350Z,100013.22
2018-04-26T02:37:41.242Z,100008.29
2018-04-26T02:40:10.214Z,100007.60
2018-04-26T02:42:39.226Z,100009.45
2018-04-26T02:45:11.283Z,100011.42
2018-04-26T02:47:40.191Z,100008.44
2018-04-26T02:50:09.277Z,100013.52
2018-04-26T02:52:38.147Z,100010.08
2018-04-26T02:55:07.260Z,100005.84
2018-04-26T02:57:36.258Z,100009.09
2018-04-26T03:00:05.264Z,100006.19
2018-04-26T03:02:47.256Z,100008.37
2018-04-26T03:05:33.999Z,100013.95
2018-04-26T03:08:08.337Z,100012.03
2018-04-26T03:10:38.192Z,100006.03
2018-04-26T03:13:07.186Z,100000.67
2018-04-26T03:15:36.189Z,99999.05
2018-04-26T03:18:05.181Z,99994.84
2018-04-26T03:20:35.088Z,99995.68
2018-04-26T03:23:04.085Z,99997.30
2018-04-26T03:25:33.050Z,100004.77
2018-04-26T03:28:02.281Z,99998.46
2018-04-26T03:30:31.065Z,99999.34
2018-04-26T03:33:00.995Z,100001.42
2018-04-26T03:35:30.323Z,100005.72
2018-04-26T03:37:59.311Z,100006.76
2018-04-26T03:40:30.175Z,100009.21
2018-04-26T03:43:00.036Z,100018.04
2018-04-26T03:45:28.907Z,100021.88
2018-04-26T03:48:02.334Z,100016.13
2018-04-26T03:50:31.250Z,100024.84
2018-04-26T03:53:00.207Z,100024.11
2018-04-26T03:55:31.255Z,100034.88
2018-04-26T03:58:00.242Z,100037.73
2018-04-26T04:00:41.114Z,100032.05
2018-04-26T04:03:21.815Z,100033.56
2018-04-26T04:06:15.453Z,100034.88
2018-04-26T04:08:44.454Z,100041.23
2018-04-26T04:11:13.608Z,100045.69
2018-04-26T04:13:43.640Z,100042.38
2018-04-26T04:16:13.282Z,100045.50
2018-04-26T04:18:42.432Z,100053.69
2018-04-26T04:21:11.551Z,100052.63
2018-04-26T04:23:44.150Z,100053.14
2018-04-26T04:26:13.991Z,100057.47
2018-04-26T04:28:43.982Z,100051.46
2018-04-26T04:31:13.485Z,100052.62
2018-04-26T04:36:17.023Z,100065.06
2018-04-26T04:38:46.100Z,100067.30
2018-04-26T04:41:16.716Z,100066.09
2018-04-26T04:43:45.624Z,100062.37
2018-04-26T04:46:16.050Z,100064.22
2018-04-26T04:48:45.970Z,100071.33
2018-04-26T04:51:15.055Z,100075.98
2018-04-26T04:53:44.060Z,100076.36
2018-04-26T04:56:13.924Z,100080.80
2018-04-26T04:58:42.866Z,100083.73
2018-04-26T05:01:11.816Z,100082.70
2018-04-26T05:03:42.689Z,100093.50
2018-04-26T05:06:11.682Z,100090.67
2018-04-26T05:08:40.669Z,100092.28
2018-04-26T05:11:09.767Z,100093.40
2018-04-26T05:13:38.729Z,100098.75
2018-04-26T05:16:07.779Z,100096.54
2018-04-26T05:18:37.716Z,100089.55
2018-04-26T05:21:06.578Z,100096.31
2018-04-26T05:23:35.455Z,100096.16
2018-04-26T05:26:04.443Z,100097.87
2018-04-26T05:28:33.355Z,100095.02
2018-04-26T05:31:02.142Z,100097.44
2018-04-26T05:36:06.787Z,100099.51
2018-04-26T05:38:35.688Z,100089.42
2018-04-26T05:41:04.683Z,100091.69
2018-04-26T05:43:33.596Z,100093.47
2018-04-26T05:46:02.453Z,100092.33
2018-04-26T05:48:31.364Z,100089.48
2018-04-26T05:51:00.317Z,100084.44
2018-04-26T05:53:29.338Z,100081.73
2018-04-26T05:55:58.250Z,100084.13
2018-04-26T05:58:29.458Z,100085.88
2018-04-26T06:00:59.402Z,100083.22
2018-04-26T06:03:28.361Z,100077.64
2018-04-26T06:05:59.122Z,100088.01
2018-04-26T06:08:28.012Z,100093.09
2018-04-26T06:10:56.901Z,100088.91
2018-04-26T06:13:25.760Z,100078.53
2018-04-26T06:15:54.571Z,100082.89
2018-04-26T06:18:23.478Z,100095.98
2018-04-26T06:20:54.316Z,100088.27
2018-04-26T06:23:23.313Z,100084.34
2018-04-26T06:25:52.286Z,100087.70
2018-04-26T06:28:22.940Z,100079.98
2018-04-26T06:30:51.828Z,100081.61
2018-04-26T06:33:20.735Z,100083.89
2018-04-26T06:35:51.356Z,100084.91
2018-04-26T06:38:20.348Z,100079.97
2018-04-26T06:40:49.337Z,100075.45
2018-04-26T06:43:19.155Z,100076.08
2018-04-26T06:45:48.149Z,100073.84
2018-04-26T06:48:17.039Z,100080.17
2018-04-26T06:50:46.749Z,100067.39
2018-04-26T06:53:15.640Z,100077.08
2018-04-26T06:55:44.570Z,100075.27
2018-04-26T06:58:13.538Z,100063.73
2018-04-26T07:00:42.418Z,100068.66
2018-04-26T07:03:11.360Z,100071.05
2018-04-26T07:08:20.054Z,100065.48
2018-04-26T07:10:55.203Z,100065.53
2018-04-26T07:13:24.053Z,100064.98
2018-04-26T07:15:52.978Z,100063.86
2018-04-26T07:18:21.964Z,100065.20
2018-04-26T07:20:50.857Z,100060.44
2018-04-26T07:23:19.754Z,100064.47
2018-04-26T07:25:48.639Z,100072.52
2018-04-26T07:28:17.747Z,100072.62
2018-04-26T07:30:46.633Z,100077.80
2018-04-26T07:33:15.521Z,100080.69
2018-04-26T07:35:44.515Z,100072.61
2018-04-26T07:38:13.372Z,100064.02
2018-04-26T07:40:42.195Z,100071.15
2018-04-26T07:43:12.016Z,100063.67
2018-04-26T07:45:40.896Z,100065.34
2018-04-26T07:48:09.837Z,100069.69
2018-04-26T07:50:40.543Z,100063.35
2018-04-26T07:53:09.401Z,100065.16
2018-04-26T07:55:38.307Z,100061.70
2018-04-26T07:58:08.061Z,100059.75
2018-04-26T08:00:37.018Z,100059.98
2018-04-26T08:03:05.887Z,100066.09
2018-04-26T08:05:35.727Z,100060.91
2018-04-26T08:08:04.919Z,100057.63
2018-04-26T08:10:34.105Z,100062.95
2018-04-26T08:13:04.026Z,100062.56
2018-04-26T08:15:32.994Z,100065.66
2018-04-26T08:18:01.851Z,100064.41
2018-04-26T08:20:31.735Z,100067.73
2018-04-26T08:23:00.625Z,100063.11
2018-04-26T08:25:29.603Z,100056.23
2018-04-26T08:27:59.983Z,100065.44
2018-04-26T08:30:29.013Z,100068.91
2018-04-26T08:32:57.909Z,100065.84
2018-04-26T08:35:28.467Z,100066.50
2018-04-26T08:37:57.357Z,100067.20
2018-04-26T08:40:26.866Z,100064.55
2018-04-26T08:42:55.963Z,100068.59
2018-04-26T08:45:24.938Z,100069.31
2018-04-26T08:47:53.848Z,100071.88
2018-04-26T08:50:23.709Z,100066.03
2018-04-26T08:52:52.637Z,100065.23
2018-04-26T08:55:21.643Z,100062.97
2018-04-26T08:57:50.854Z,100067.98
2018-04-26T09:00:19.833Z,100069.61
2018-04-26T09:02:49.140Z,100067.89
2018-04-26T09:05:18.221Z,100067.42
2018-04-26T09:07:47.127Z,100068.77
2018-04-26T09:10:18.791Z,100062.07
2018-04-26T09:12:47.875Z,100060.38
2018-04-26T09:15:17.695Z,100053.50
2018-04-26T09:17:47.505Z,100058.44
2018-04-26T09:20:19.030Z,100056.12
2018-04-26T09:22:52.852Z,100053.66
2018-04-26T09:25:25.552Z,100055.16
2018-04-26T09:27:56.804Z,100045.51
2018-04-26T09:30:26.096Z,100055.37
2018-04-26T09:32:55.091Z,100049.50
2018-04-26T09:35:30.455Z,100043.70
2018-04-26T09:37:59.279Z,100042.69
2018-04-26T09:40:30.209Z,100043.80
2018-04-26T09:42:59.048Z,100045.97
2018-04-26T09:45:28.049Z,100043.19
2018-04-26T09:47:57.751Z,100048.45
2018-04-26T09:50:26.764Z,100051.17
2018-04-26T09:52:55.804Z,100043.25
2018-04-26T09:55:25.319Z,100042.48
2018-04-26T09:57:55.148Z,100042.33
2018-04-26T10:00:29.135Z,100039.02
2018-04-26T10:02:58.157Z,100040.36
2018-04-26T10:05:32.373Z,100039.80
2018-04-26T10:08:01.378Z,100035.50
2018-04-26T10:10:32.123Z,100037.42
2018-04-26T10:13:01.124Z,100035.69
2018-04-26T10:15:30.112Z,100031.45
2018-04-26T10:17:59.017Z,100028.08
2018-04-26T10:20:27.897Z,100030.34
2018-04-26T10:22:56.991Z,100031.13
2018-04-26T10:25:25.887Z,100023.10
2018-04-26T10:27:54.764Z,100022.79
2018-04-26T10:32:57.673Z,100020.84
2018-04-26T10:35:27.627Z,100020.95
2018-04-26T10:37:56.590Z,100028.70
2018-04-26T10:40:25.480Z,100027.57
2018-04-26T10:42:54.880Z,100023.41
2018-04-26T10:45:23.869Z,100020.45
2018-04-26T10:47:52.768Z,100007.23
2018-04-26T10:50:21.668Z,100008.17
2018-04-26T10:52:52.463Z,100009.73
2018-04-26T10:55:21.390Z,100004.02
2018-04-26T10:57:50.386Z,100006.50
2018-04-26T11:00:20.275Z,99998.20
2018-04-26T11:02:49.984Z,99992.61
2018-04-26T11:05:19.825Z,99993.38
2018-04-26T11:07:48.863Z,99977.72
2018-04-26T11:10:17.682Z,99978.80
2018-04-26T11:12:46.502Z,99986.01
2018-04-26T11:15:16.246Z,99985.84
2018-04-26T11:17:45.257Z,99986.16
2018-04-26T11:20:14.095Z,99979.55
2018-04-26T11:22:43.906Z,99983.45
2018-04-26T11:25:12.798Z,99979.05
2018-04-26T11:27:41.692Z,99985.27
2018-04-26T11:30:11.506Z,99972.75
2018-04-26T11:32:40.383Z,99972.20
2018-04-26T11:35:10.107Z,99974.26
2018-04-26T11:37:39.210Z,99969.05
2018-04-26T11:40:08.269Z,99968.63
2018-04-26T11:42:37.189Z,99966.93
2018-04-26T11:45:07.029Z,99968.50
2018-04-26T11:47:36.212Z,99969.12
2018-04-26T11:50:05.976Z,99957.67
2018-04-26T11:52:35.147Z,99962.27
2018-04-26T11:55:04.108Z,99957.38
2018-04-26T11:57:34.433Z,99947.98
2018-04-26T12:00:06.293Z,99947.97
2018-04-26T12:02:35.375Z,99944.48
2018-04-26T12:05:04.250Z,99941.72
2018-04-26T12:07:33.211Z,99942.25
2018-04-26T12:10:02.070Z,99935.08
2018-04-26T12:12:43.969Z,99942.77
2018-04-26T12:15:31.803Z,99937.80
2018-04-26T12:18:05.950Z,99934.30
2018-04-26T12:20:35.623Z,99927.00
2018-04-26T12:23:04.655Z,99921.76
2018-04-26T12:25:33.715Z,99921.55
2018-04-26T12:28:02.742Z,99915.84
2018-04-26T12:30:31.815Z,99919.03
2018-04-26T12:33:00.805Z,99911.84
2018-04-26T12:35:29.791Z,99907.49
2018-04-26T12:37:59.449Z,99901.79
2018-04-26T12:40:28.397Z,99905.73
2018-04-26T12:42:57.389Z,99908.99
2018-04-26T12:45:26.444Z,99901.21
2018-04-26T12:47:56.440Z,99898.67
2018-04-26T12:50:26.939Z,99895.67
2018-04-26T12:52:55.965Z,99898.16
2018-04-26T12:55:25.790Z,99902.31
2018-04-26T12:57:54.770Z,99895.17
2018-04-26T13:00:23.735Z,99893.00
2018-04-26T13:02:55.685Z,99892.48
2018-04-26T13:05:24.630Z,99890.59
2018-04-26T13:07:53.611Z,99897.28
2018-04-26T13:10:22.620Z,99889.25
2018-04-26T13:12:52.628Z,99885.34
2018-04-26T13:15:22.419Z,99882.70
2018-04-26T13:17:57.949Z,99885.29
2018-04-26T13:20:26.906Z,99885.79
2018-04-26T13:22:55.797Z,99890.16
2018-04-26T13:25:26.403Z,99886.25
2018-04-26T13:27:55.291Z,99883.12
2018-04-26T13:30:24.355Z,99882.67
2018-04-26T13:32:53.665Z,99881.41
2018-04-26T13:35:22.651Z,99875.71
2018-04-26T13:37:51.545Z,99877.99
2018-04-26T13:40:21.392Z,99870.21
2018-04-26T13:42:50.274Z,99876.89
2018-04-26T13:45:19.140Z,99871.88
2018-04-26T13:47:48.236Z,99874.65
2018-04-26T13:50:17.462Z,99868.18
2018-04-26T13:52:46.794Z,99871.73
2018-04-26T13:55:21.475Z,99866.72
2018-04-26T13:57:50.356Z,99864.00
2018-04-26T14:00:19.970Z,99873.34
2018-04-26T14:02:48.938Z,99868.67
2018-04-26T14:05:17.851Z,99870.21
2018-04-26T14:07:46.811Z,99861.95
2018-04-26T14:10:15.872Z,99866.38
2018-04-26T14:12:44.940Z,99863.34
2018-04-26T14:15:15.588Z,99857.50
2018-04-26T14:17:45.327Z,99862.88
2018-04-26T14:20:14.273Z,99863.20
2018-04-26T14:22:43.304Z,99864.66
2018-04-26T14:25:13.084Z,99856.96
2018-04-26T14:27:42.076Z,99858.05
2018-04-26T14:30:11.171Z,99862.70
2018-04-26T14:32:43.235Z,99862.99
2018-04-26T14:35:12.222Z,99856.30
2018-04-26T14:37:41.221Z,99860.12
2018-04-26T14:40:10.312Z,99863.27
2018-04-26T14:42:39.239Z,99855.47
2018-04-26T14:45:08.913Z,99861.44
2018-04-26T14:47:38.022Z,99856.42
2018-04-26T14:50:07.022Z,99851.94
2018-04-26T14:52:35.899Z,99856.77
2018-04-26T14:55:07.046Z,99851.13
2018-04-26T14:57:35.961Z,99856.81
2018-04-26T15:00:05.029Z,99858.45
2018-04-26T15:02:35.800Z,99850.63
2018-04-26T15:05:04.756Z,99850.14
2018-04-26T15:07:33.886Z,99846.22
2018-04-26T15:10:04.432Z,99850.05
2018-04-26T15:12:33.382Z,99850.00
2018-04-26T15:15:02.257Z,99850.00
2018-04-26T15:17:31.986Z,99846.93
2018-04-26T15:20:00.955Z,99848.13
2018-04-26T15:22:30.801Z,99849.45
2018-04-26T15:24:59.786Z,99854.70
2018-04-26T15:27:28.781Z,99855.66
2018-04-26T15:29:57.771Z,99846.09
2018-04-26T15:35:00.370Z,99848.55
2018-04-26T15:37:29.247Z,99840.33
2018-04-26T15:40:00.503Z,99843.44
2018-04-26T15:42:30.223Z,99844.36
2018-04-26T15:45:00.586Z,99851.55
2018-04-26T15:47:29.695Z,99846.38
2018-04-26T15:49:58.711Z,99847.99
2018-04-26T15:52:47.807Z,99845.54
2018-04-26T15:55:41.951Z,99847.62
2018-04-26T16:01:44.444Z,99846.42
2018-04-26T16:04:27.814Z,99840.98
2018-04-26T16:07:09.540Z,99844.27
2018-04-26T16:09:50.470Z,99835.41
2018-04-26T16:12:36.786Z,99841.53
2018-04-26T16:15:18.349Z,99845.99
2018-04-26T16:18:04.481Z,99837.97
2018-04-26T16:20:52.614Z,99836.97
2018-04-26T16:23:38.810Z,99834.80
2018-04-26T16:26:20.603Z,99835.14
2018-04-26T16:29:06.903Z,99836.14
2018-04-26T16:31:54.842Z,99833.13
2018-04-26T16:34:50.359Z,99842.55
2018-04-26T16:37:36.767Z,99836.70
2018-04-26T16:40:05.653Z,99838.06
2018-04-26T16:42:35.568Z,99839.65
2018-04-26T16:45:07.415Z,99842.03
2018-04-26T16:47:36.384Z,99853.55
2018-04-26T16:50:05.377Z,99851.16
2018-04-26T16:55:08.217Z,99855.98
2018-04-26T16:57:38.137Z,99859.58
2018-04-26T17:00:08.156Z,99851.61
2018-04-26T17:02:38.173Z,99847.75
2018-04-26T17:05:07.321Z,99849.08
2018-04-26T17:07:36.268Z,99844.42
2018-04-26T17:10:05.801Z,99856.20
2018-04-26T17:12:34.754Z,99860.56
2018-04-26T17:15:03.962Z,99859.23
2018-04-26T17:17:32.860Z,99865.11
2018-04-26T17:20:02.872Z,99866.17
2018-04-26T17:22:31.997Z,99864.13
2018-04-26T17:25:01.272Z,99865.25
2018-04-26T17:27:31.329Z,99870.06
2018-04-26T17:30:03.464Z,99865.28
2018-04-26T17:32:32.524Z,99875.16
2018-04-26T17:35:01.651Z,99877.32
2018-04-26T17:40:04.777Z,99880.49
2018-04-26T17:42:33.754Z,99882.72
2018-04-26T17:45:02.745Z,99884.81
2018-04-26T17:47:31.770Z,99888.44
2018-04-26T17:50:00.679Z,99894.59
2018-04-26T17:52:30.427Z,99901.53
2018-04-26T17:54:59.448Z,99901.68
2018-04-26T17:57:30.082Z,99907.45
2018-04-26T18:00:00.012Z,99912.50
2018-04-26T18:02:29.291Z,99914.34
2018-04-26T18:04:58.212Z,99923.14
2018-04-26T18:07:30.047Z,99921.99
2018-04-26T18:09:59.101Z,99925.85
2018-04-26T18:12:28.032Z,99922.79
2018-04-26T18:14:59.993Z,99928.39
2018-04-26T18:17:29.090Z,99927.86
2018-04-26T18:20:08.148Z,99933.11
2018-04-26T18:22:27.290Z,99932.25
2018-04-26T18:24:56.096Z,99932.34
2018-04-26T18:27:26.600Z,99930.29
2018-04-26T18:29:55.871Z,99926.72
2018-04-26T18:32:25.026Z,99936.59
2018-04-26T18:34:54.817Z,99930.26
2018-04-26T18:37:23.805Z,99930.19
2018-04-26T18:39:52.846Z,99929.88
2018-04-26T18:42:21.735Z,99931.61
2018-04-26T18:44:50.942Z,99926.89
2018-04-26T18:47:20.437Z,99923.58
2018-04-26T18:49:49.529Z,99928.83
2018-04-26T18:52:19.355Z,99931.02
2018-04-26T18:54:48.299Z,99936.64
2018-04-26T18:57:18.179Z,99929.58
2018-04-26T18:59:48.899Z,99931.00
2018-04-26T19:02:17.951Z,99929.36
2018-04-26T19:04:46.767Z,99935.73
2018-04-26T19:07:16.687Z,99935.03
2018-04-26T19:09:45.750Z,99932.08
2018-04-26T19:12:15.768Z,99933.81
2018-04-26T19:14:45.577Z,99930.38
2018-04-26T19:17:16.214Z,99938.95
2018-04-26T19:19:45.924Z,99936.80
2018-04-26T19:22:15.872Z,99935.23
2018-04-26T19:24:44.833Z,99933.53
2018-04-26T19:27:14.103Z,99940.14
2018-04-26T19:29:43.019Z,99935.88
2018-04-26T19:32:12.022Z,99933.88
2018-04-26T19:34:41.938Z,99930.92
2018-04-26T19:37:11.952Z,99937.86
2018-04-26T19:39:40.925Z,99936.13
2018-04-26T19:42:09.837Z,99930.70
2018-04-26T19:44:39.648Z,99927.75
2018-04-26T19:47:08.749Z,99916.34
2018-04-26T19:49:37.645Z,99919.23
2018-04-26T19:52:06.711Z,99917.87
2018-04-26T19:54:35.937Z,99913.93
2018-04-26T19:57:05.650Z,99917.23
2018-04-26T19:59:36.489Z,99916.79
2018-04-26T20:02:05.780Z,99926.01
2018-04-26T20:04:34.984Z,99922.58
2018-04-26T20:07:04.189Z,99917.59
2018-04-26T20:09:33.336Z,99921.86
2018-04-26T20:12:02.184Z,99918.84
2018-04-26T20:14:33.207Z,99914.31
2018-04-26T20:17:02.428Z,99915.12
2018-04-26T20:19:31.452Z,99915.12
2018-04-26T20:22:02.361Z,99909.14
2018-04-26T20:24:34.555Z,99903.16
2018-04-26T20:27:06.310Z,99899.92
2018-04-26T20:29:36.302Z,99902.70
2018-04-26T20:32:05.396Z,99904.96
2018-04-26T20:34:37.972Z,99909.13
2018-04-26T20:37:07.786Z,99909.87
2018-04-26T20:39:37.004Z,99912.20
2018-04-26T20:42:06.085Z,99917.94
2018-04-26T20:44:46.925Z,99909.06
2018-04-26T20:49:51.490Z,99908.82
2018-04-26T20:52:20.528Z,99913.45
2018-04-26T20:57:23.440Z,99912.83
2018-04-26T20:59:52.625Z,99909.20
2018-04-26T21:02:36.048Z,99908.92
2018-04-26T21:05:11.032Z,99912.74
2018-04-26T21:07:42.802Z,99916.37
2018-04-26T21:10:11.825Z,99907.40
2018-04-26T21:12:40.918Z,99913.02
2018-04-26T21:15:10.729Z,99912.75
2018-04-26T21:17:40.058Z,99909.20
2018-04-26T21:20:09.297Z,99909.98
2018-04-26T21:22:38.330Z,99913.90
2018-04-26T21:25:07.327Z,99912.64
2018-04-26T21:27:36.506Z,99905.55
2018-04-26T21:30:06.343Z,99899.42
2018-04-26T21:32:35.329Z,99900.19
2018-04-26T21:35:05.225Z,99904.68
2018-04-26T21:37:34.484Z,99906.67
2018-04-26T21:40:03.624Z,99902.95
2018-04-26T21:42:32.943Z,99906.00
2018-04-26T21:45:02.044Z,99901.80
2018-04-26T21:47:31.034Z,99898.59
2018-04-26T21:50:08.246Z,99898.11
2018-04-26T21:52:42.753Z,99897.48
2018-04-26T21:55:18.260Z,99900.21
2018-04-26T21:57:52.815Z,99904.97
2018-04-26T22:00:27.619Z,99899.19
2018-04-26T22:02:57.052Z,99905.23
2018-04-26T22:05:31.170Z,99910.84
2018-04-26T22:08:01.793Z,99910.17
2018-04-26T22:10:30.790Z,99898.45
2018-04-26T22:13:00.097Z,99901.92
2018-04-26T22:15:29.197Z,99904.30
2018-04-26T22:17:58.298Z,99903.97
2018-04-26T22:20:27.468Z,99903.30
2018-04-26T22:22:56.581Z,99901.82
2018-04-26T22:25:27.186Z,99907.60
2018-04-26T22:27:56.623Z,99899.38
2018-04-26T22:30:25.810Z,99903.16
2018-04-26T22:32:54.909Z,99898.83
2018-04-26T22:35:23.999Z,99897.41
2018-04-26T22:37:53.099Z,99889.77
2018-04-26T22:40:22.104Z,99883.33
2018-04-26T22:42:51.073Z,99887.08
2018-04-26T22:45:20.230Z,99883.12
2018-04-26T22:47:49.288Z,99884.41
2018-04-26T22:50:19.497Z,99878.53
2018-04-26T22:52:48.511Z,99872.72
2018-04-26T22:55:17.594Z,99868.94
2018-04-26T23:00:20.492Z,99855.90
2018-04-26T23:02:49.336Z,99858.12
2018-04-26T23:05:18.487Z,99858.12
2018-04-26T23:07:47.585Z,99864.26
2018-04-26T23:10:16.472Z,99850.16
2018-04-26T23:12:45.317Z,99858.16
2018-04-26T23:15:15.997Z,99850.95
2018-04-26T23:17:45.089Z,99852.11
2018-04-26T23:20:13.988Z,99853.88
2018-04-26T23:22:43.082Z,99852.02
2018-04-26T23:25:11.970Z,99854.38
2018-04-26T23:27:41.481Z,99849.02
2018-04-26T23:30:10.487Z,99845.00
2018-04-26T23:32:40.180Z,99846.52
2018-04-26T23:35:09.176Z,99844.72
2018-04-26T23:37:39.305Z,99838.55
2018-04-26T23:40:08.197Z,99835.31
2018-04-26T23:42:37.080Z,99842.25
2018-04-26T23:45:06.158Z,99838.65
2018-04-26T23:47:35.377Z,99834.95
2018-04-26T23:50:05.167Z,99832.19
2018-04-26T23:52:34.160Z,99839.61
2018-04-26T23:55:03.078Z,99829.88
2018-04-26T23:57:32.151Z,99837.29
